• Join FlightAware (Why Join?)
  • Login
  • US Flag GB Flag 
20:38 EST


 

Airport Tracker/Info


-or-


 

Live Flight TrackerFlight Track Log ✈ N158RA ✈ 11-Jun-2013 ✈ KBKL - KBKL

Flight Track Log - Related Links

Times and Time Zones

All times are in EDT time to prevent confusion due to time zone crossing. See the N158RA flight status page for this flight to view local times or setup timezone preferences in your user account.

Time Position Orientation Groundspeed Altitude Reporting Facility
EDT Latitude Longitude Course Direction KTS MPH feet Rate Location/Type
13:22 41.5128 -81.6922 318° Northwest 62 71 1,000  Level Cleveland Center
13:23 41.5292 -81.7119 318° Northwest 85 98 1,900 360 Climbing Cleveland Center
13:24 41.5500 -81.7069 10° North 95 109 2,000 120 Climbing Cleveland Center
13:25 41.5814 -81.7017 North 116 133 2,200 300 Climbing Cleveland Center
13:26 41.5961 -81.6744 54° Northeast 109 125 2,700 360 Climbing Cleveland Center
13:27 41.6069 -81.6383 68° East 106 122 3,000 120 Climbing Cleveland Center
13:28 41.6219 -81.5942 66° East 121 139 3,000  Level Cleveland Center
13:29 41.6347 -81.5500 69° East 124 143 3,000  Level Cleveland Center
13:30 41.6311 -81.5139 98° East 125 144 3,000  Level Cleveland Center
13:31 41.6039 -81.5133 179° South 111 128 3,000  Level Cleveland Center
13:32 41.5850 -81.5381 224° Southwest 97 112 3,000 -300 Level Cleveland Center
13:33 41.5722 -81.5683 241° Southwest 95 109 2,500 -540 Descending Cleveland Center
13:34 41.5572 -81.5958 234° Southwest 96 110 2,000 -540 Descending Cleveland Center
13:35 41.5425 -81.6289 239° Southwest 94 108 1,500 -480 Descending Cleveland Center
13:36 41.5297 -81.6567 238° Southwest 88 101 1,000 -240 Descending Cleveland Center
13:37 41.5189 -81.6842 242° Southwest 99 114 1,100 360 Climbing Cleveland Center
13:38 41.5292 -81.6981 315° West 81 93 1,700 540 Climbing Cleveland Center
13:39 41.5564 -81.6958 North 92 106 2,300 540 Climbing Cleveland Center
13:40 41.5775 -81.6794 30° Northeast 95 109 2,900 360 Climbing Cleveland Center
13:41 41.5819 -81.6436 81° East 112 129 3,100 60 Climbing Cleveland Center
13:42 41.5989 -81.6022 61° Northeast 124 143 3,100 -60 Level Cleveland Center
13:43 41.6200 -81.5664 52° Northeast 121 139 3,000 -60 Descending Cleveland Center
13:44 41.6350 -81.5306 61° Northeast 132 152 3,000  Level Cleveland Center
13:45 41.6122 -81.5053 140° Southeast 121 139 3,100  Climbing Cleveland Center
13:46 41.5850 -81.5325 217° Southwest 99 114 3,000 -300 Descending Cleveland Center
13:47 41.5742 -81.5656 246° West 94 108 2,500 -480 Descending Cleveland Center
13:48 41.5572 -81.5958 233° Southwest 95 109 2,000 -480 Descending Cleveland Center
13:49 41.5444 -81.6264 241° Southwest 93 107 1,600 -480 Descending Cleveland Center
13:50 41.5317 -81.6567 241° Southwest 92 106 1,100 -120 Descending Cleveland Center
13:51 41.5231 -81.6814 245° Southwest 82 94 1,400 360 Climbing Cleveland Center
13:52 41.5378 -81.6900 336° Northwest 82 94 1,900 360 Climbing Cleveland Center
13:53 41.5650 -81.6794 16° North 107 123 2,100 240 Climbing Cleveland Center
13:54 41.5797 -81.6492 57° Northeast 112 129 2,500 420 Climbing Cleveland Center
13:55 41.5989 -81.6161 52° Northeast 87 100 3,000 240 Climbing Cleveland Center
13:56 41.6158 -81.5831 56° Northeast 119 137 3,100 60 Climbing Cleveland Center